createdAt,value
2022-12-06T00:00:01.206Z,30.90
2022-12-06T00:01:00.177Z,34.70
2022-12-06T00:02:00.896Z,33.50
2022-12-06T00:03:00.292Z,35.30
2022-12-06T00:04:00.233Z,35.90
2022-12-06T00:05:00.166Z,31.90
2022-12-06T00:06:00.268Z,31.90
2022-12-06T00:07:01.397Z,33.20
2022-12-06T00:08:00.271Z,39.50
2022-12-06T00:09:00.125Z,31.30
2022-12-06T00:10:01.194Z,37.80
2022-12-06T00:11:00.885Z,33.40
2022-12-06T00:12:00.121Z,35.90
2022-12-06T00:13:00.197Z,34.00
2022-12-06T00:14:00.048Z,31.70
2022-12-06T00:15:00.036Z,32.20
2022-12-06T00:16:00.078Z,34.10
2022-12-06T00:17:00.081Z,32.70
2022-12-06T00:18:00.022Z,31.60
2022-12-06T00:18:59.999Z,31.60
2022-12-06T00:20:00.371Z,31.70
2022-12-06T00:20:59.969Z,32.70
2022-12-06T00:22:00.042Z,37.10
2022-12-06T00:22:59.989Z,33.60
2022-12-06T00:23:59.938Z,31.90
2022-12-06T00:24:59.978Z,30.70
2022-12-06T00:25:59.913Z,32.10
2022-12-06T00:27:00.023Z,31.50
2022-12-06T00:27:59.929Z,34.10
2022-12-06T00:28:59.893Z,33.10
2022-12-06T00:30:00.111Z,35.60
2022-12-06T00:30:59.898Z,38.40
2022-12-06T00:31:59.924Z,36.00
2022-12-06T00:32:59.969Z,34.30
2022-12-06T00:33:59.855Z,35.60
2022-12-06T00:34:59.862Z,36.10
2022-12-06T00:35:59.817Z,38.20
2022-12-06T00:37:00.748Z,34.20
2022-12-06T00:37:59.902Z,33.80
2022-12-06T00:38:59.803Z,35.60
2022-12-06T00:39:59.933Z,37.40
2022-12-06T00:40:59.768Z,37.00
2022-12-06T00:42:00.292Z,35.50
2022-12-06T00:42:59.786Z,32.90
2022-12-06T00:43:59.749Z,38.20
2022-12-06T00:44:59.722Z,41.20
2022-12-06T00:46:00.468Z,35.90
2022-12-06T00:47:00.226Z,38.60
2022-12-06T00:47:59.696Z,34.70
2022-12-06T00:48:59.695Z,38.60
2022-12-06T00:50:00.000Z,34.30
2022-12-06T00:50:59.639Z,40.30
2022-12-06T00:51:59.791Z,39.80
2022-12-06T00:52:59.631Z,37.90
2022-12-06T00:53:59.700Z,37.10
2022-12-06T00:54:59.665Z,37.10
2022-12-06T00:55:59.666Z,40.20
2022-12-06T00:56:59.643Z,39.10
2022-12-06T00:57:59.624Z,39.30
2022-12-06T00:58:59.710Z,35.20
2022-12-06T00:59:59.948Z,37.50
2022-12-06T01:00:59.655Z,35.80
2022-12-06T01:01:59.787Z,33.20
2022-12-06T01:02:59.623Z,34.80
2022-12-06T01:03:59.675Z,35.70
2022-12-06T01:04:59.583Z,37.30
2022-12-06T01:05:59.559Z,34.80
2022-12-06T01:06:59.573Z,33.40
2022-12-06T01:07:59.952Z,33.90
2022-12-06T01:08:59.479Z,34.40
2022-12-06T01:10:00.025Z,36.80
2022-12-06T01:10:59.568Z,38.00
2022-12-06T01:11:59.492Z,37.80
2022-12-06T01:12:59.444Z,33.00
2022-12-06T01:13:59.411Z,34.40
2022-12-06T01:14:59.441Z,42.30
2022-12-06T01:16:00.212Z,38.00
2022-12-06T01:16:59.395Z,37.70
2022-12-06T01:17:59.404Z,33.50
2022-12-06T01:18:59.403Z,36.90
2022-12-06T01:19:59.761Z,35.20
2022-12-06T01:20:59.386Z,34.00
2022-12-06T01:21:59.356Z,33.80
2022-12-06T01:22:59.336Z,33.30
2022-12-06T01:23:59.335Z,29.70
2022-12-06T01:24:59.313Z,30.60
2022-12-06T01:25:59.269Z,30.80
2022-12-06T01:26:59.350Z,35.20
2022-12-06T01:27:59.363Z,37.10
2022-12-06T01:28:59.358Z,30.10
2022-12-06T01:29:59.604Z,36.00
2022-12-06T01:30:59.289Z,29.60
2022-12-06T01:31:59.250Z,29.80
2022-12-06T01:32:59.251Z,31.20
2022-12-06T01:34:00.010Z,31.50
2022-12-06T01:34:59.245Z,31.60
2022-12-06T01:35:59.236Z,35.50
2022-12-06T01:36:59.214Z,32.60
2022-12-06T01:38:04.446Z,32.30
2022-12-06T01:39:01.247Z,31.20
2022-12-06T01:39:59.428Z,33.30
2022-12-06T01:40:59.194Z,38.30
2022-12-06T01:41:59.271Z,38.70
2022-12-06T01:42:59.195Z,36.50
2022-12-06T01:43:59.170Z,32.40
2022-12-06T01:44:59.232Z,29.50
2022-12-06T01:45:59.171Z,42.30
2022-12-06T01:46:59.216Z,37.10
2022-12-06T01:47:59.177Z,35.70
2022-12-06T01:48:59.114Z,37.40
2022-12-06T01:49:59.488Z,36.20
2022-12-06T01:50:59.086Z,31.90
2022-12-06T01:51:59.063Z,36.70
2022-12-06T01:52:59.039Z,34.60
2022-12-06T01:53:59.008Z,36.20
2022-12-06T01:54:58.972Z,37.10
2022-12-06T01:55:58.975Z,40.70
2022-12-06T01:56:58.973Z,35.70
2022-12-06T01:57:59.071Z,37.70
2022-12-06T01:58:58.974Z,37.60
2022-12-06T01:59:59.054Z,34.30
2022-12-06T02:00:59.063Z,34.90
2022-12-06T02:01:59.060Z,33.90
2022-12-06T02:02:59.073Z,35.70
2022-12-06T02:03:58.972Z,32.50
2022-12-06T02:05:00.004Z,31.00
2022-12-06T02:05:58.940Z,29.70
2022-12-06T02:06:58.896Z,34.10
2022-12-06T02:07:58.935Z,31.70
2022-12-06T02:08:58.839Z,31.90
2022-12-06T02:09:59.146Z,31.20
2022-12-06T02:10:58.820Z,29.00
2022-12-06T02:11:58.878Z,28.70
2022-12-06T02:12:58.809Z,30.00
2022-12-06T02:13:58.828Z,32.00
2022-12-06T02:14:59.048Z,27.90
2022-12-06T02:15:58.757Z,27.30
2022-12-06T02:16:58.920Z,29.10
2022-12-06T02:17:58.921Z,32.30
2022-12-06T02:18:58.772Z,28.20
2022-12-06T02:20:00.028Z,27.80
2022-12-06T02:20:58.773Z,27.70
2022-12-06T02:21:59.285Z,27.90
2022-12-06T02:22:58.810Z,29.60
2022-12-06T02:23:58.768Z,25.80
2022-12-06T02:24:58.793Z,25.60
2022-12-06T02:25:58.676Z,26.40
2022-12-06T02:26:58.665Z,25.20
2022-12-06T02:27:59.256Z,25.10
2022-12-06T02:28:58.629Z,23.60
2022-12-06T02:29:59.088Z,26.10
2022-12-06T02:30:58.713Z,25.00
2022-12-06T02:31:58.582Z,23.20
2022-12-06T02:32:58.605Z,23.90
2022-12-06T02:33:58.573Z,24.30
2022-12-06T02:34:58.541Z,25.30
2022-12-06T02:35:58.665Z,25.10
2022-12-06T02:36:58.543Z,23.70
2022-12-06T02:37:58.556Z,24.40
2022-12-06T02:38:58.522Z,23.30
2022-12-06T02:39:58.714Z,25.30
2022-12-06T02:40:58.513Z,23.50
2022-12-06T02:41:58.514Z,23.10
2022-12-06T02:42:58.464Z,24.70
2022-12-06T02:43:58.481Z,23.80
2022-12-06T02:44:58.441Z,23.40
2022-12-06T02:45:58.556Z,24.70
2022-12-06T02:46:58.471Z,23.20
2022-12-06T02:47:58.414Z,19.60
2022-12-06T02:48:58.382Z,23.60
2022-12-06T02:49:58.827Z,20.60
2022-12-06T02:50:58.398Z,22.70
2022-12-06T02:51:58.398Z,23.10
2022-12-06T02:52:59.398Z,22.40
2022-12-06T02:53:58.354Z,21.20
2022-12-06T02:54:58.313Z,20.20
2022-12-06T02:55:58.422Z,22.50
2022-12-06T02:56:58.339Z,21.10
2022-12-06T02:57:58.399Z,22.70
2022-12-06T02:58:58.298Z,19.60
2022-12-06T02:59:58.557Z,22.60
2022-12-06T03:00:58.347Z,22.10
2022-12-06T03:01:58.447Z,19.30
2022-12-06T03:02:58.868Z,19.40
2022-12-06T03:03:58.287Z,20.10
2022-12-06T03:04:58.214Z,20.90
2022-12-06T03:05:58.243Z,20.90
2022-12-06T03:06:58.207Z,19.50
2022-12-06T03:07:58.294Z,21.60
2022-12-06T03:08:58.206Z,19.90
2022-12-06T03:09:58.749Z,19.90
2022-12-06T03:10:58.239Z,18.50
2022-12-06T03:11:58.178Z,21.70
2022-12-06T03:12:58.169Z,21.00
2022-12-06T03:13:58.190Z,22.50
2022-12-06T03:14:58.168Z,20.60
2022-12-06T03:15:58.786Z,17.90
2022-12-06T03:16:58.144Z,17.20
2022-12-06T03:17:58.156Z,18.00
2022-12-06T03:18:58.751Z,18.80
2022-12-06T03:19:59.409Z,18.90
2022-12-06T03:20:58.112Z,18.60
2022-12-06T03:21:58.257Z,19.90
2022-12-06T03:22:58.048Z,18.50
2022-12-06T03:23:58.111Z,19.20
2022-12-06T03:24:59.063Z,17.70
2022-12-06T03:25:58.003Z,18.50
2022-12-06T03:26:57.993Z,19.50
2022-12-06T03:27:58.017Z,16.40
2022-12-06T03:28:58.065Z,17.90
2022-12-06T03:29:58.228Z,14.80
2022-12-06T03:30:58.108Z,14.40
2022-12-06T03:31:57.945Z,14.50
2022-12-06T03:32:57.932Z,13.40
2022-12-06T03:33:57.924Z,12.50
2022-12-06T03:34:57.960Z,13.60
2022-12-06T03:35:57.910Z,12.10
2022-12-06T03:36:57.922Z,13.90
2022-12-06T03:37:58.773Z,11.00
2022-12-06T03:38:58.748Z,11.90
2022-12-06T03:39:58.213Z,10.00
2022-12-06T03:40:57.854Z,9.20
2022-12-06T03:41:57.936Z,9.70
2022-12-06T03:42:58.010Z,10.00
2022-12-06T03:43:57.968Z,10.30
2022-12-06T03:44:57.905Z,9.90
2022-12-06T03:45:57.997Z,11.50
2022-12-06T03:46:57.857Z,10.90
2022-12-06T03:47:57.849Z,12.20
2022-12-06T03:48:57.750Z,10.20
2022-12-06T03:49:58.097Z,10.40
2022-12-06T03:50:58.928Z,10.60
2022-12-06T03:51:57.845Z,12.70
2022-12-06T03:52:57.898Z,12.10
2022-12-06T03:53:57.803Z,11.80
2022-12-06T03:54:58.318Z,11.70
2022-12-06T03:55:57.882Z,9.90
2022-12-06T03:56:57.769Z,11.90
2022-12-06T03:57:57.678Z,12.50
2022-12-06T03:58:57.745Z,12.60
2022-12-06T03:59:58.070Z,13.10
2022-12-06T04:00:57.657Z,12.10
2022-12-06T04:01:57.706Z,13.20
2022-12-06T04:02:57.631Z,12.30
2022-12-06T04:03:57.630Z,13.50
2022-12-06T04:04:57.637Z,12.80
2022-12-06T04:05:57.622Z,11.70
2022-12-06T04:06:57.646Z,12.90
2022-12-06T04:07:57.734Z,12.70
2022-12-06T04:08:57.586Z,13.30
2022-12-06T04:09:57.958Z,12.70
2022-12-06T04:10:57.617Z,13.10
2022-12-06T04:11:57.581Z,13.50
2022-12-06T04:12:57.604Z,14.70
2022-12-06T04:13:57.579Z,12.50
2022-12-06T04:14:57.561Z,12.50
2022-12-06T04:15:57.511Z,13.90
2022-12-06T04:16:57.626Z,13.00
2022-12-06T04:17:57.558Z,15.20
2022-12-06T04:18:57.486Z,14.90
2022-12-06T04:19:57.442Z,14.20
2022-12-06T04:20:58.434Z,16.20
2022-12-06T04:21:57.526Z,15.30
2022-12-06T04:22:57.475Z,14.90
2022-12-06T04:23:57.535Z,14.40
2022-12-06T04:24:57.466Z,14.80
2022-12-06T04:25:57.430Z,14.90
2022-12-06T04:26:57.396Z,13.70
2022-12-06T04:27:57.458Z,16.00
2022-12-06T04:28:57.350Z,14.80
2022-12-06T04:29:57.761Z,17.00
2022-12-06T04:30:57.442Z,13.10
2022-12-06T04:31:57.343Z,16.00
2022-12-06T04:32:57.399Z,14.70
2022-12-06T04:33:57.367Z,15.40
2022-12-06T04:34:57.387Z,15.00
2022-12-06T04:35:57.303Z,15.30
2022-12-06T04:36:57.274Z,16.40
2022-12-06T04:37:57.307Z,14.10
2022-12-06T04:38:57.354Z,15.60
2022-12-06T04:39:57.397Z,19.20
2022-12-06T04:40:58.191Z,16.30
2022-12-06T04:41:57.210Z,17.30
2022-12-06T04:42:57.306Z,15.90
2022-12-06T04:43:57.184Z,14.70
2022-12-06T04:44:57.271Z,16.60
2022-12-06T04:45:57.291Z,17.40
2022-12-06T04:46:57.221Z,16.60
2022-12-06T04:47:57.215Z,13.80
2022-12-06T04:48:58.188Z,14.80
2022-12-06T04:49:57.357Z,16.30
2022-12-06T04:50:57.146Z,15.10
2022-12-06T04:51:57.164Z,17.40
2022-12-06T04:52:57.756Z,17.40
2022-12-06T04:53:57.155Z,16.50
2022-12-06T04:54:57.123Z,17.10
2022-12-06T04:55:57.229Z,16.70
2022-12-06T04:56:57.787Z,19.30
2022-12-06T04:57:57.052Z,15.60
2022-12-06T04:58:57.039Z,17.20
2022-12-06T04:59:57.247Z,18.50
2022-12-06T05:00:57.102Z,16.30
2022-12-06T05:01:57.080Z,15.30
2022-12-06T05:03:00.001Z,17.60
2022-12-06T05:03:57.130Z,17.30
2022-12-06T05:04:57.020Z,16.00
2022-12-06T05:05:57.019Z,16.60
2022-12-06T05:06:56.969Z,17.70
2022-12-06T05:07:57.119Z,17.50
2022-12-06T05:08:56.917Z,17.20
2022-12-06T05:09:57.121Z,17.80
2022-12-06T05:10:56.963Z,19.20
2022-12-06T05:11:56.896Z,16.20
2022-12-06T05:12:56.952Z,18.00
2022-12-06T05:13:57.844Z,14.50
2022-12-06T05:14:57.029Z,17.80
2022-12-06T05:15:56.968Z,16.90
2022-12-06T05:16:56.884Z,16.20
2022-12-06T05:17:56.853Z,18.30
2022-12-06T05:18:56.815Z,16.10
2022-12-06T05:19:56.920Z,17.40
2022-12-06T05:20:56.811Z,14.90
2022-12-06T05:21:57.175Z,16.30
2022-12-06T05:22:56.758Z,17.00
2022-12-06T05:23:56.802Z,16.80
2022-12-06T05:24:56.874Z,16.50
2022-12-06T05:25:56.811Z,15.60
2022-12-06T05:26:56.722Z,16.60
2022-12-06T05:27:56.754Z,16.40
2022-12-06T05:28:56.774Z,14.60
2022-12-06T05:29:56.888Z,15.40
2022-12-06T05:30:56.769Z,16.30
2022-12-06T05:31:56.733Z,16.60
2022-12-06T05:32:57.180Z,17.10
2022-12-06T05:33:57.691Z,15.50
2022-12-06T05:34:56.762Z,16.60
2022-12-06T05:35:56.642Z,16.40
2022-12-06T05:36:56.635Z,16.40
2022-12-06T05:37:56.610Z,18.00
2022-12-06T05:38:56.623Z,19.00
2022-12-06T05:39:57.484Z,17.90
2022-12-06T05:40:56.607Z,17.20
2022-12-06T05:41:56.627Z,17.00
2022-12-06T05:42:56.647Z,16.60
2022-12-06T05:43:56.631Z,17.00
2022-12-06T05:44:56.731Z,16.50
2022-12-06T05:45:56.579Z,17.80
2022-12-06T05:46:56.587Z,18.10
2022-12-06T05:47:56.531Z,16.90
2022-12-06T05:48:56.592Z,17.40
2022-12-06T05:49:56.510Z,17.90
2022-12-06T05:50:56.579Z,19.00
2022-12-06T05:52:01.185Z,20.60
2022-12-06T05:52:57.472Z,16.70
2022-12-06T05:53:56.422Z,18.90
2022-12-06T05:54:56.435Z,19.10
2022-12-06T05:55:56.535Z,19.70
2022-12-06T05:56:56.485Z,19.80
2022-12-06T05:57:56.419Z,19.70
2022-12-06T05:58:56.414Z,17.50
2022-12-06T05:59:56.414Z,17.70
2022-12-06T06:00:56.412Z,16.50
2022-12-06T06:01:56.589Z,17.20
2022-12-06T06:03:03.494Z,18.40
2022-12-06T06:04:28.789Z,19.60
2022-12-06T06:04:56.352Z,19.70
2022-12-06T06:05:56.348Z,16.80
2022-12-06T06:06:56.322Z,18.80
2022-12-06T06:07:56.310Z,17.90
2022-12-06T06:08:57.223Z,16.60
2022-12-06T06:09:56.299Z,15.80
2022-12-06T06:10:56.371Z,17.60
2022-12-06T06:11:56.271Z,17.10
2022-12-06T06:12:56.244Z,16.70
2022-12-06T06:13:56.239Z,15.50
2022-12-06T06:14:56.258Z,15.30
2022-12-06T06:15:56.184Z,21.30
2022-12-06T06:16:56.242Z,20.50
2022-12-06T06:17:56.180Z,16.90
2022-12-06T06:18:56.248Z,16.90
2022-12-06T06:19:56.166Z,17.40
2022-12-06T06:20:56.220Z,13.80
2022-12-06T06:21:56.168Z,16.00
2022-12-06T06:22:56.145Z,15.00
2022-12-06T06:23:56.161Z,12.90
2022-12-06T06:24:56.096Z,14.30
2022-12-06T06:25:56.132Z,15.40
2022-12-06T06:26:56.131Z,15.20
2022-12-06T06:27:56.181Z,16.00
2022-12-06T06:28:56.079Z,14.30
2022-12-06T06:29:56.084Z,16.10
2022-12-06T06:30:56.123Z,12.70
2022-12-06T06:31:56.345Z,16.20
2022-12-06T06:32:56.032Z,14.00
2022-12-06T06:33:56.713Z,15.40
2022-12-06T06:34:56.042Z,12.60
2022-12-06T06:35:56.202Z,14.20
2022-12-06T06:36:56.046Z,12.80
2022-12-06T06:37:56.021Z,13.20
2022-12-06T06:38:55.950Z,13.10
2022-12-06T06:39:56.109Z,13.20
2022-12-06T06:40:55.986Z,11.90
2022-12-06T06:41:56.019Z,12.10
2022-12-06T06:42:55.998Z,14.10
2022-12-06T06:43:55.952Z,12.80
2022-12-06T06:44:55.910Z,12.00
2022-12-06T06:45:55.992Z,14.20
2022-12-06T06:46:55.894Z,13.30
2022-12-06T06:47:55.865Z,10.10
2022-12-06T06:48:56.899Z,15.00
2022-12-06T06:49:55.937Z,12.20
2022-12-06T06:50:57.927Z,14.30
2022-12-06T06:51:56.883Z,11.90
2022-12-06T06:52:55.807Z,12.20
2022-12-06T06:53:55.781Z,10.50
2022-12-06T06:54:55.851Z,12.10
2022-12-06T06:55:55.803Z,11.60
2022-12-06T06:56:55.875Z,10.20
2022-12-06T06:57:55.817Z,12.90
2022-12-06T06:58:55.779Z,11.60
2022-12-06T06:59:56.806Z,10.70
2022-12-06T07:00:55.854Z,9.70
2022-12-06T07:01:56.053Z,10.00
2022-12-06T07:02:55.753Z,10.60
2022-12-06T07:03:55.714Z,11.80
2022-12-06T07:04:55.683Z,11.80
2022-12-06T07:05:55.698Z,10.70
2022-12-06T07:06:55.677Z,10.10
2022-12-06T07:07:55.954Z,10.20
2022-12-06T07:08:55.666Z,11.50
2022-12-06T07:09:55.643Z,13.60
2022-12-06T07:10:55.722Z,10.70
2022-12-06T07:11:55.598Z,9.10
2022-12-06T07:12:55.651Z,9.10
2022-12-06T07:13:55.611Z,10.70
2022-12-06T07:14:55.735Z,8.00
2022-12-06T07:15:55.608Z,8.50
2022-12-06T07:16:55.725Z,12.50
2022-12-06T07:17:55.608Z,8.80
2022-12-06T07:18:55.599Z,8.00
2022-12-06T07:19:55.632Z,7.10
2022-12-06T07:20:55.607Z,8.50
2022-12-06T07:21:55.510Z,7.60
2022-12-06T07:22:55.499Z,11.00
2022-12-06T07:23:55.564Z,12.00
2022-12-06T07:24:55.636Z,10.40
2022-12-06T07:25:55.553Z,8.60
2022-12-06T07:26:55.468Z,8.60
2022-12-06T07:27:55.509Z,9.10
2022-12-06T07:28:56.293Z,8.00
2022-12-06T07:29:55.493Z,8.00
2022-12-06T07:30:55.485Z,9.70
2022-12-06T07:31:55.444Z,7.70
2022-12-06T07:32:56.091Z,7.40
2022-12-06T07:33:55.388Z,9.00
2022-12-06T07:34:55.471Z,8.20
2022-12-06T07:36:13.059Z,9.90
2022-12-06T07:36:57.409Z,8.10
2022-12-06T07:37:55.341Z,7.30
2022-12-06T07:38:55.372Z,8.60
2022-12-06T07:39:55.397Z,10.70
2022-12-06T07:41:04.597Z,9.40
2022-12-06T07:41:57.361Z,7.80
2022-12-06T07:42:56.216Z,7.80
2022-12-06T07:43:55.277Z,9.20
2022-12-06T07:44:59.928Z,7.50
2022-12-06T07:45:57.403Z,9.00
2022-12-06T07:46:55.330Z,9.00
2022-12-06T07:47:55.224Z,8.30
2022-12-06T07:48:55.304Z,9.70
2022-12-06T07:49:55.289Z,6.50
2022-12-06T07:50:55.351Z,7.50
2022-12-06T07:51:55.188Z,10.10
2022-12-06T07:52:55.196Z,10.20
2022-12-06T07:53:55.205Z,13.60
2022-12-06T07:54:55.302Z,16.70
2022-12-06T07:55:55.234Z,13.20
2022-12-06T07:56:55.297Z,14.80
2022-12-06T07:57:55.185Z,11.10
2022-12-06T07:58:55.167Z,9.20
2022-12-06T07:59:55.164Z,9.30
2022-12-06T08:00:55.350Z,10.80
2022-12-06T08:01:55.165Z,7.60
2022-12-06T08:02:55.197Z,11.60
2022-12-06T08:03:55.092Z,9.70
2022-12-06T08:04:55.205Z,7.80
2022-12-06T08:05:55.095Z,8.60
2022-12-06T08:06:55.030Z,9.00
2022-12-06T08:07:55.127Z,9.30
2022-12-06T08:08:55.074Z,8.90
2022-12-06T08:09:55.019Z,8.80
2022-12-06T08:10:55.064Z,8.30
2022-12-06T08:11:56.705Z,8.30
2022-12-06T08:12:54.960Z,9.20
2022-12-06T08:13:56.059Z,11.10
2022-12-06T08:14:59.617Z,8.10
2022-12-06T08:15:55.109Z,9.60
2022-12-06T08:16:54.911Z,9.60
2022-12-06T08:17:54.971Z,9.30
2022-12-06T08:18:54.945Z,9.70
2022-12-06T08:19:54.925Z,8.80
2022-12-06T08:20:54.880Z,8.80
2022-12-06T08:21:54.888Z,9.60
2022-12-06T08:22:54.938Z,9.20
2022-12-06T08:23:54.926Z,9.80
2022-12-06T08:24:54.854Z,8.60
2022-12-06T08:25:54.839Z,9.10
2022-12-06T08:26:54.856Z,10.40
2022-12-06T08:27:55.028Z,9.70
2022-12-06T08:28:55.892Z,9.20
2022-12-06T08:29:54.794Z,9.70
2022-12-06T08:30:59.648Z,8.80
2022-12-06T08:31:55.848Z,9.20
2022-12-06T08:32:54.884Z,10.40
2022-12-06T08:33:54.740Z,9.00
2022-12-06T08:34:54.792Z,9.00
2022-12-06T08:35:54.781Z,9.10
2022-12-06T08:36:56.913Z,10.80
2022-12-06T08:37:58.557Z,10.10
2022-12-06T08:38:56.397Z,11.60
2022-12-06T08:39:54.794Z,11.20
2022-12-06T08:40:54.718Z,11.20
2022-12-06T08:41:54.774Z,9.90
2022-12-06T08:42:54.701Z,10.60
2022-12-06T08:43:54.638Z,10.00
2022-12-06T08:44:54.669Z,10.10
2022-12-06T08:45:54.758Z,10.90
2022-12-06T08:46:54.646Z,9.50
2022-12-06T08:47:54.693Z,9.40
2022-12-06T08:48:54.593Z,8.40
2022-12-06T08:49:54.669Z,9.50
2022-12-06T08:50:54.618Z,10.90
2022-12-06T08:51:54.629Z,11.20
2022-12-06T08:52:54.601Z,10.90
2022-12-06T08:53:54.649Z,10.40
2022-12-06T08:54:54.578Z,9.10
2022-12-06T08:56:00.358Z,8.90
2022-12-06T08:56:56.536Z,8.70
2022-12-06T08:57:54.562Z,9.70
2022-12-06T08:58:54.497Z,8.80
2022-12-06T08:59:54.558Z,11.60
2022-12-06T09:00:54.511Z,10.40
2022-12-06T09:01:54.644Z,10.20
2022-12-06T09:02:55.219Z,9.20
2022-12-06T09:03:54.571Z,8.60
2022-12-06T09:04:54.524Z,10.30
2022-12-06T09:05:55.084Z,9.30
2022-12-06T09:06:54.429Z,9.10
2022-12-06T09:07:54.430Z,9.90
2022-12-06T09:08:55.319Z,9.90
2022-12-06T09:09:54.582Z,10.40
2022-12-06T09:10:54.475Z,11.50
2022-12-06T09:11:54.414Z,11.00
2022-12-06T09:12:54.390Z,9.70
2022-12-06T09:13:54.322Z,10.20
2022-12-06T09:14:54.394Z,11.60
2022-12-06T09:15:54.385Z,10.10
2022-12-06T09:16:54.315Z,9.80
2022-12-06T09:17:54.318Z,11.10
2022-12-06T09:18:54.480Z,9.90
2022-12-06T09:19:54.272Z,12.80
2022-12-06T09:20:54.343Z,9.90
2022-12-06T09:21:54.342Z,11.20
2022-12-06T09:22:54.286Z,10.30
2022-12-06T09:23:54.278Z,9.50
2022-12-06T09:24:54.265Z,9.30
2022-12-06T09:25:54.240Z,12.30
2022-12-06T09:26:54.227Z,10.70
2022-12-06T09:27:54.700Z,11.40
2022-12-06T09:28:54.198Z,12.40
2022-12-06T09:29:54.218Z,14.30
2022-12-06T09:30:54.264Z,12.60
2022-12-06T09:31:55.121Z,12.20
2022-12-06T09:32:54.147Z,12.00
2022-12-06T09:33:54.123Z,11.50
2022-12-06T09:34:54.195Z,12.30
2022-12-06T09:35:54.109Z,14.20
2022-12-06T09:36:54.120Z,15.20
2022-12-06T09:37:54.079Z,14.30
2022-12-06T09:38:54.068Z,14.40
2022-12-06T09:39:54.095Z,13.30
2022-12-06T09:40:54.083Z,14.50
2022-12-06T09:41:54.072Z,17.80
2022-12-06T09:42:54.083Z,18.30
2022-12-06T09:43:54.077Z,18.10
2022-12-06T09:44:54.052Z,15.90
2022-12-06T09:45:54.077Z,12.50
2022-12-06T09:46:54.084Z,16.20
2022-12-06T09:47:54.243Z,10.20
2022-12-06T09:48:54.072Z,12.30
2022-12-06T09:49:54.410Z,12.00
2022-12-06T09:50:53.985Z,11.60
2022-12-06T09:51:53.961Z,15.10
2022-12-06T09:52:53.993Z,13.40
2022-12-06T09:53:53.932Z,20.10
2022-12-06T09:55:00.143Z,67.40
2022-12-06T09:55:55.979Z,43.70
2022-12-06T09:56:53.942Z,20.60
2022-12-06T09:57:53.951Z,15.30
2022-12-06T09:58:53.897Z,14.20
2022-12-06T09:59:53.973Z,16.60
2022-12-06T10:00:54.632Z,22.70
2022-12-06T10:01:53.924Z,30.20
2022-12-06T10:02:53.897Z,44.40
2022-12-06T10:03:53.824Z,30.30
2022-12-06T10:04:53.844Z,36.60
2022-12-06T10:05:53.790Z,36.80
2022-12-06T10:06:53.809Z,41.80
2022-12-06T10:07:53.957Z,32.50
2022-12-06T10:08:54.656Z,24.50
2022-12-06T10:09:53.800Z,18.60
2022-12-06T10:10:54.641Z,14.20
2022-12-06T10:11:53.793Z,16.50
2022-12-06T10:12:53.737Z,13.90
2022-12-06T10:13:53.872Z,16.30
2022-12-06T10:14:53.997Z,14.80
2022-12-06T10:15:53.798Z,15.60
2022-12-06T10:16:53.664Z,17.80
2022-12-06T10:17:53.689Z,14.50
2022-12-06T10:18:53.677Z,13.90
2022-12-06T10:19:53.630Z,19.10
2022-12-06T10:20:53.640Z,13.20
2022-12-06T10:21:53.677Z,15.30
2022-12-06T10:22:53.713Z,15.30
2022-12-06T10:23:57.298Z,20.40
2022-12-06T10:24:55.740Z,21.10
2022-12-06T10:25:53.606Z,23.80
2022-12-06T10:26:53.671Z,23.70
2022-12-06T10:27:54.317Z,20.30
2022-12-06T10:28:53.558Z,15.20
2022-12-06T10:29:53.578Z,19.70
2022-12-06T10:30:53.645Z,16.20
2022-12-06T10:31:53.670Z,15.00
2022-12-06T10:32:53.506Z,20.20
2022-12-06T10:33:53.633Z,23.50
2022-12-06T10:34:53.593Z,18.60
2022-12-06T10:35:53.511Z,22.10
2022-12-06T10:36:53.493Z,27.10
2022-12-06T10:37:53.462Z,19.10
2022-12-06T10:38:53.458Z,20.30
2022-12-06T10:39:53.474Z,18.20
2022-12-06T10:40:53.462Z,16.10
2022-12-06T10:41:54.257Z,11.00
2022-12-06T10:42:53.443Z,14.10
2022-12-06T10:43:53.402Z,14.10
2022-12-06T10:44:55.059Z,14.50
2022-12-06T10:45:53.370Z,11.80
2022-12-06T10:46:53.411Z,12.60
2022-12-06T10:47:53.387Z,13.60
2022-12-06T10:48:53.351Z,15.70
2022-12-06T10:49:54.283Z,14.00
2022-12-06T10:50:53.335Z,13.10
2022-12-06T10:51:53.424Z,12.20
2022-12-06T10:52:57.195Z,16.00
2022-12-06T10:53:55.311Z,28.30
2022-12-06T10:54:54.196Z,13.20
2022-12-06T10:55:53.275Z,12.90
2022-12-06T10:56:54.238Z,11.90
2022-12-06T10:57:53.278Z,12.20
2022-12-06T10:58:53.333Z,12.30
2022-12-06T10:59:53.244Z,13.30
2022-12-06T11:00:53.269Z,15.10
2022-12-06T11:01:53.252Z,14.60
2022-12-06T11:02:53.308Z,13.30
2022-12-06T11:03:53.239Z,19.30
2022-12-06T11:04:53.210Z,28.00
2022-12-06T11:05:53.164Z,26.40
2022-12-06T11:06:55.105Z,17.60
2022-12-06T11:07:54.207Z,15.40
2022-12-06T11:08:53.152Z,13.90
2022-12-06T11:09:53.235Z,14.70
2022-12-06T11:10:53.143Z,14.50
2022-12-06T11:11:53.104Z,14.10
2022-12-06T11:12:53.151Z,14.80
2022-12-06T11:13:54.688Z,13.50
2022-12-06T11:14:54.100Z,13.60
2022-12-06T11:15:54.254Z,12.90
2022-12-06T11:16:53.088Z,14.40
2022-12-06T11:17:54.939Z,12.70
2022-12-06T11:18:53.086Z,14.00
2022-12-06T11:19:53.036Z,14.20
2022-12-06T11:20:53.036Z,16.40
2022-12-06T11:21:53.008Z,13.10
2022-12-06T11:22:52.988Z,14.10
2022-12-06T11:23:53.322Z,12.10
2022-12-06T11:24:52.963Z,14.00
2022-12-06T11:25:52.976Z,12.20
2022-12-06T11:26:52.958Z,11.20
2022-12-06T11:27:52.958Z,12.10
2022-12-06T11:28:52.930Z,10.30
2022-12-06T11:29:52.982Z,9.90
2022-12-06T11:30:52.913Z,11.90
2022-12-06T11:31:53.666Z,12.70
2022-12-06T11:32:52.894Z,9.40
2022-12-06T11:33:54.529Z,10.20
2022-12-06T11:34:52.969Z,9.20
2022-12-06T11:35:52.883Z,10.50
2022-12-06T11:36:58.144Z,8.70
2022-12-06T11:37:54.841Z,10.50
2022-12-06T11:38:53.623Z,9.70
2022-12-06T11:39:52.830Z,10.20
2022-12-06T11:40:53.678Z,9.10
2022-12-06T11:41:52.809Z,9.70
2022-12-06T11:42:52.819Z,9.10
2022-12-06T11:43:52.774Z,9.60
2022-12-06T11:44:56.196Z,9.60
2022-12-06T11:45:52.774Z,11.00
2022-12-06T11:46:53.009Z,10.30
2022-12-06T11:47:52.763Z,8.70
2022-12-06T11:48:52.739Z,10.40
2022-12-06T11:49:52.681Z,10.70
2022-12-06T11:50:52.670Z,10.70
2022-12-06T11:51:53.668Z,13.70
2022-12-06T11:52:52.706Z,17.40
2022-12-06T11:53:52.664Z,13.90
2022-12-06T11:54:53.561Z,12.70
2022-12-06T11:55:52.654Z,12.70
2022-12-06T11:56:52.644Z,11.50
2022-12-06T11:57:52.618Z,14.40
2022-12-06T11:58:52.670Z,8.90
2022-12-06T11:59:52.612Z,13.30
2022-12-06T12:00:52.571Z,13.80
2022-12-06T12:01:52.648Z,17.10
2022-12-06T12:02:52.645Z,14.80
2022-12-06T12:03:52.538Z,10.90
2022-12-06T12:04:52.828Z,20.30
2022-12-06T12:05:52.523Z,15.30
2022-12-06T12:06:53.192Z,14.40
2022-12-06T12:07:53.566Z,15.10
2022-12-06T12:08:53.288Z,12.00
2022-12-06T12:09:53.088Z,14.50
2022-12-06T12:10:52.688Z,8.00
2022-12-06T12:11:52.836Z,32.00
2022-12-06T12:12:52.489Z,7.70
2022-12-06T12:13:52.647Z,6.60
2022-12-06T12:14:53.197Z,10.00
2022-12-06T12:15:52.726Z,13.80
2022-12-06T12:16:53.150Z,9.20
2022-12-06T12:17:52.453Z,11.10
2022-12-06T12:18:52.388Z,9.60
2022-12-06T12:19:52.456Z,8.30
2022-12-06T12:20:52.385Z,8.30
2022-12-06T12:21:54.505Z,7.40
2022-12-06T12:22:54.172Z,6.60
2022-12-06T12:23:52.337Z,8.70
2022-12-06T12:25:21.631Z,6.50
2022-12-06T12:25:54.521Z,6.80
2022-12-06T12:26:52.385Z,7.10
2022-12-06T12:27:52.324Z,8.00
2022-12-06T12:28:53.304Z,6.70
2022-12-06T12:29:52.292Z,7.30
2022-12-06T12:30:52.282Z,8.60
2022-12-06T12:31:52.477Z,10.80
2022-12-06T12:32:52.314Z,8.10
2022-12-06T12:33:52.267Z,13.50
2022-12-06T12:34:52.308Z,16.90
2022-12-06T12:35:52.304Z,16.40
2022-12-06T12:36:52.286Z,19.20
2022-12-06T12:37:52.202Z,23.30
2022-12-06T12:38:52.194Z,21.00
2022-12-06T12:39:52.265Z,20.30
2022-12-06T12:40:52.194Z,16.90
2022-12-06T12:41:52.162Z,15.70
2022-12-06T12:42:53.017Z,17.20
2022-12-06T12:44:07.710Z,20.10
2022-12-06T12:44:54.161Z,16.30
2022-12-06T12:45:52.235Z,14.90
2022-12-06T12:46:52.169Z,13.80
2022-12-06T12:47:54.062Z,11.80
2022-12-06T12:48:52.157Z,12.20
2022-12-06T12:49:52.101Z,10.00
2022-12-06T12:50:52.233Z,10.90
2022-12-06T12:51:52.201Z,12.60
2022-12-06T12:52:52.067Z,11.40
2022-12-06T12:53:52.041Z,9.80
2022-12-06T12:54:52.018Z,10.80
2022-12-06T12:55:52.147Z,11.10